首页
METAR-TAF:

METAR-TAF

机场 :

汉特-曼西斯克, 俄罗斯

纬度: 61-01N, 经度: 069-02E, 海拔: 40米

当前天气观测

该预报发布于33分钟前的02:30 UTC
风速6节,风向
温度 9°C
湿度 71%
气压 1012 hPa
能见度10公里或以上
少量云层高于3000英尺

METAR: USHH 010230Z 08003MPS 9999 FEW030 09/04 Q1012 R06/010060 NOSIG

时间: 07:03 (03:03 UTC)

预报

该预报发布于1小时和15分钟前的01:48 UTC
预报有效从01日的 03点(UTC)到 02日的 03点(UTC)
风速6节,风向,有时为16节阵风
能见度10公里或以上
多云层高于2000英尺
短暂存在
从 01日的 03点(UTC)到 01日的 12点(UTC)
少量云层高于500英尺
多云层高于1600英尺, 积雨云.
成为
从 01日的 09点(UTC)到 01日的 11点(UTC)
风速10节,风向东北
短暂存在
从 01日的 12点(UTC)到 01日的 18点(UTC)
能見度: 6000
少量云层高于400英尺
多云层高于1600英尺, 积雨云.
小阵雨

TAF: USHH 010148Z 0103/0203 08003G08MPS 9999 BKN020 TEMPO 0103/0112 FEW005 BKN016CB BECMG 0109/0111 04005MPS TEMPO 0112/0118 6000 -SHRA FEW004 BKN016CB

超过4000个机场的气象观测和天气预报(METAR&TAF报告)。

可查询的气象台以黄色和红色小点在地图上表示。

将鼠标移到小点上方,可查看气象台名称。

然后点击查看天气观测和预报。

如需切换地图:点击带黑十字的绿色按钮放大地图;点击带横线的绿色按钮缩小地图;或者点击绿色箭头查看邻近地区的地图。


METAR-TAF: